Latest Weather Observations for Lucas Heights

IDN60901

Issued at 3:12 am EDT Saturday 7 March 2015 (issued every 10 minutes, with the page automatically refreshed every 10 minutes)

About weather observations | Map of Sydney area stations | Latest observations for Sydney area | Other Formats
Station Details ID: 066023 Name: LUCAS HEIGHTS AWS Lat: -34.05 Lon: 150.98 Height: 140.0 m
Data from the previous 72 hours. | See also: Recent months for locations in New South Wales
Date/Time
EDT
Tmp

°C
App
Tmp
°C
Dew
Point
°C
Rel
Hum
%
Delta-T

°C
Wind Press
QNH
hPa
Press
MSL
hPa
Rain
since
9 am
mm
Dir
 
Spd
km/h
Gust
km/h
Spd
kts
Gust
kts
07/03:00am 17.6 16.6 14.6 82 1.7 SE 13 17 7 9 1009.9 - 0.0
07/02:45am 17.6 16.9 14.4 81 1.9 SE 11 13 6 7 1010.0 - 0.0
07/02:30am 17.8 16.7 14.4 80 2.0 ESE 13 15 7 8 1010.0 - 0.0
07/02:15am 17.8 16.7 14.2 79 2.1 SE 13 15 7 8 1010.1 - 0.0
07/02:00am 17.8 16.6 14.1 79 2.1 SE 13 17 7 9 1010.0 - 0.0
07/01:45am 18.1 16.6 14.2 78 2.3 SE 15 17 8 9 1010.0 - 0.0
07/01:30am 18.1 17.0 14.3 78 2.2 SE 13 17 7 9 1010.1 - 0.0
07/01:15am 18.0 16.8 14.1 78 2.2 SE 13 15 7 8 1010.3 - 0.0
07/01:00am 18.1 17.0 14.2 78 2.3 SE 13 17 7 9 1010.2 - 0.0
07/12:45am 18.3 17.2 14.4 78 2.3 SE 13 15 7 8 1009.9 - 0.0
07/12:30am 18.2 17.4 14.0 76 2.4 SSE 11 13 6 7 1009.9 - 0.0
07/12:15am 18.4 17.7 14.2 76 2.4 SSE 11 13 6 7 1009.9 - 0.0
07/12:00am 18.4 17.6 14.1 76 2.5 SSE 11 13 6 7 1009.9 - 0.0
 
Date/Time
EDT
Tmp

°C
App
Tmp
°C
Dew
Point
°C
Rel
Hum
%
Delta-T

°C
Wind Press
QNH
hPa
Press
MSL
hPa
Rain
since
9 am
mm
Dir
 
Spd
km/h
Gust
km/h
Spd
kts
Gust
kts
06/11:45pm 18.4 17.6 13.9 75 2.6 SSE 11 13 6 7 1009.7 - 0.0
06/11:30pm 18.7 17.8 13.8 73 2.8 SSE 11 13 6 7 1009.7 - 0.0
06/11:15pm 19.2 18.0 14.1 72 3.0 SSE 13 15 7 8 1009.6 - 0.0
06/11:00pm 19.4 18.6 14.1 71 3.1 SE 11 15 6 8 1009.5 - 0.0
06/10:45pm 19.5 18.7 13.9 70 3.2 SSE 11 13 6 7 1009.4 - 0.0
06/10:30pm 19.4 18.1 13.6 69 3.3 SSE 13 15 7 8 1009.3 - 0.0
06/10:15pm 19.5 18.0 13.0 66 3.7 SSE 13 17 7 9 1009.2 - 0.0
06/10:00pm 19.6 17.9 12.5 63 4.0 SSE 13 17 7 9 1009.1 - 0.0
06/09:45pm 19.6 17.7 11.9 61 4.3 SSE 13 19 7 10 1008.9 - 0.0
06/09:30pm 19.7 16.9 11.4 58 4.6 S 17 20 9 11 1008.6 - 0.0
06/09:15pm 20.2 18.3 11.7 58 4.7 S 13 22 7 12 1008.3 - 0.0
06/09:00pm 20.7 19.8 11.5 55 5.1 S 7 9 4 5 1007.9 - 0.0
06/08:45pm 21.2 20.6 11.7 54 5.3 SSE 6 7 3 4 1007.5 - 0.0
06/08:30pm 21.4 20.6 11.2 52 5.7 ESE 6 7 3 4 1007.1 - 0.0
06/08:15pm 22.4 21.5 10.6 47 6.5 ESE 6 7 3 4 1006.7 - 0.0
06/08:00pm 23.3 21.5 9.6 41 7.5 SW 9 15 5 8 1006.4 - 0.0
06/07:45pm 24.2 21.3 9.6 39 8.0 SW 15 19 8 10 1006.0 - 0.0
06/07:30pm 24.8 21.5 9.4 37 8.4 SW 17 24 9 13 1005.5 - 0.0
06/07:15pm 25.6 22.6 9.1 35 9.0 WSW 15 22 8 12 1005.1 - 0.0
06/07:00pm 26.4 23.3 8.7 32 9.7 WSW 15 24 8 13 1004.9 - 0.0
06/06:45pm 26.9 23.4 8.6 31 10.0 WSW 17 24 9 13 1004.7 - 0.0
06/06:30pm 27.1 22.9 8.4 30 10.2 WSW 20 32 11 17 1004.5 - 0.0
06/06:15pm 27.4 23.9 8.6 30 10.3 WSW 17 26 9 14 1004.4 - 0.0
06/06:00pm 27.7 24.3 9.0 31 10.3 SW 17 24 9 13 1004.2 - 0.0
06/05:45pm 27.8 24.0 8.9 30 10.4 SW 19 32 10 17 1004.1 - 0.0
06/05:30pm 27.9 24.1 9.1 30 10.4 SW 19 33 10 18 1003.9 - 0.0
06/05:15pm 27.9 23.9 9.0 30 10.5 SW 20 32 11 17 1003.8 - 0.0
06/05:00pm 28.0 23.6 9.1 30 10.5 SW 22 33 12 18 1003.6 - 0.0
06/04:45pm 27.9 22.4 9.0 30 10.5 SW 28 39 15 21 1003.6 - 0.0
06/04:30pm 28.1 23.3 8.9 30 10.6 WSW 24 35 13 19 1003.6 - 0.0
06/04:15pm 28.3 24.5 8.9 29 10.7 SW 19 30 10 16 1003.5 - 0.0
06/04:00pm 28.3 24.3 8.4 28 10.9 W 19 30 10 16 1003.5 - 0.0
06/03:45pm 28.3 24.5 8.9 29 10.7 WSW 19 32 10 17 1003.6 - 0.0
06/03:30pm 27.8 23.9 8.5 29 10.6 W 19 32 10 17 1003.7 - 0.0
06/03:15pm 27.5 22.9 8.2 29 10.5 WSW 22 33 12 18 1003.9 - 0.0
06/03:00pm 27.6 23.7 8.7 30 10.4 WSW 19 28 10 15 1004.0 - 0.0
06/02:45pm 27.2 22.6 8.3 30 10.3 WSW 22 37 12 20 1004.2 - 0.0
06/02:30pm 26.7 21.2 7.6 29 10.3 WSW 26 37 14 20 1004.5 - 0.0
06/02:15pm 26.6 21.5 7.6 30 10.2 WSW 24 37 13 20 1004.6 - 0.0
06/02:00pm 26.3 21.5 7.3 30 10.1 WSW 22 37 12 20 1004.7 - 0.0
06/01:45pm 26.2 21.8 7.5 30 10.0 WSW 20 33 11 18 1004.8 - 0.0
06/01:30pm 25.6 19.9 6.9 30 9.9 WSW 26 39 14 21 1004.9 - 0.0
06/01:15pm 25.3 19.6 6.6 30 9.8 WSW 26 39 14 21 1005.3 - 0.0
06/01:00pm 25.0 20.1 6.9 31 9.5 W 22 33 12 18 1005.4 - 0.0
06/12:45pm 24.4 19.1 6.6 32 9.3 WSW 24 35 13 19 1005.6 - 0.0
06/12:30pm 23.8 18.4 6.2 32 9.1 W 24 35 13 19 1005.9 - 0.0
06/12:15pm 23.2 18.1 5.8 32 8.9 W 22 33 12 18 1006.3 - 0.0
06/12:00pm 22.6 17.0 5.6 33 8.6 W 24 37 13 20 1006.6 - 0.0
06/11:45am 22.1 16.4 5.1 33 8.5 W 24 41 13 22 1006.6 - 0.0
06/11:30am 21.7 16.0 5.0 33 8.3 W 24 37 13 20 1006.8 - 0.0
06/11:15am 21.0 14.1 4.4 33 8.1 W 30 48 16 26 1006.8 - 0.0
06/11:00am 20.8 13.3 4.6 34 7.9 W 33 52 18 28 1006.8 - 0.0
06/10:45am 20.1 12.2 4.5 36 7.6 W 35 48 19 26 1006.7 - 0.0
06/10:30am 19.5 11.6 4.4 37 7.3 WSW 35 48 19 26 1006.8 - 0.0
06/10:15am 19.4 12.6 5.2 39 7.0 WSW 30 48 16 26 1007.1 - 0.0
06/10:00am 19.1 14.0 6.0 42 6.5 W 22 37 12 20 1007.1 - 0.0
06/09:45am 18.5 13.0 5.8 43 6.3 W 24 33 13 18 1007.2 - 0.0
06/09:30am 18.1 12.2 5.8 44 6.1 W 26 33 14 18 1007.2 - 0.0
06/09:15am 17.4 12.6 7.3 51 5.1 W 22 28 12 15 1007.4 - 0.0
06/09:00am 17.0 12.3 7.9 55 4.6 WNW 22 30 12 16 1007.3 - 0.0
06/08:45am 16.4 12.3 8.6 60 4.0 WNW 20 30 11 16 1007.4 - 0.0
06/08:30am 15.3 11.6 9.5 68 3.0 WNW 19 28 10 15 1007.5 - 0.0
06/08:15am 14.5 11.2 9.7 73 2.5 NW 17 26 9 14 1007.5 - 0.0
06/08:00am 13.6 10.4 10.1 79 1.8 NW 17 24 9 13 1007.7 - 0.0
06/07:45am 12.8 9.6 10.0 83 1.4 NW 17 24 9 13 1007.6 - 0.0
06/07:30am 12.4 8.8 9.8 84 1.3 NW 19 22 10 12 1007.7 - 0.0
06/07:15am 12.5 9.3 9.8 83 1.4 NW 17 22 9 12 1007.7 - 0.0
06/07:00am 12.6 8.8 9.8 83 1.4 NW 20 24 11 13 1007.6 - 0.0
06/06:45am 12.5 8.3 9.6 82 1.5 NW 22 24 12 13 1007.7 - 0.0
06/06:30am 12.8 9.5 9.7 81 1.6 NW 17 20 9 11 1007.8 - 0.0
06/06:15am 13.2 10.0 10.0 81 1.7 WNW 17 22 9 12 1008.1 - 0.0
06/06:00am 13.2 9.5 10.0 81 1.7 WNW 20 22 11 12 1008.2 - 0.0
06/05:45am 13.2 10.0 9.9 80 1.7 WNW 17 19 9 10 1008.2 - 0.0
06/05:30am 13.3 9.7 9.8 79 1.8 WNW 19 22 10 12 1008.3 - 0.0
06/05:15am 13.5 10.3 9.8 78 1.9 WNW 17 19 9 10 1008.3 - 0.0
06/05:00am 13.8 10.6 9.8 77 2.1 WNW 17 19 9 10 1008.4 - 0.0
06/04:45am 14.0 10.4 9.8 76 2.2 NW 19 20 10 11 1008.6 - 0.0
06/04:30am 14.2 10.6 9.8 75 2.3 WNW 19 20 10 11 1008.8 - 0.0
06/04:15am 14.3 11.1 9.8 74 2.3 WNW 17 22 9 12 1009.1 - 0.0
06/04:00am 14.3 11.4 9.6 73 2.4 WNW 15 19 8 10 1009.3 - 0.0
06/03:45am 14.7 11.9 10.0 73 2.5 WNW 15 19 8 10 1009.5 - 0.0
06/03:30am 14.8 11.6 9.9 72 2.6 W 17 19 9 10 1009.8 - 0.0
06/03:15am 14.9 12.1 10.0 72 2.6 W 15 19 8 10 1009.9 - 0.0
06/03:00am 15.0 11.8 9.9 71 2.7 W 17 19 9 10 1010.1 - 0.0
06/02:45am 15.0 12.2 10.0 72 2.6 W 15 19 8 10 1010.4 - 0.0
06/02:30am 14.9 12.0 9.8 71 2.7 W 15 19 8 10 1010.5 - 0.0
06/02:15am 14.8 12.3 9.6 71 2.7 W 13 17 7 9 1010.9 - 0.0
06/02:00am 14.8 11.9 9.7 71 2.7 W 15 17 8 9 1011.2 - 0.0
06/01:45am 14.8 11.9 9.8 72 2.6 W 15 17 8 9 1011.5 - 0.0
06/01:30am 14.8 12.0 9.9 72 2.6 W 15 17 8 9 1011.6 - 0.0
06/01:15am 14.9 12.0 9.8 71 2.7 WSW 15 17 8 9 1011.8 - 0.0
06/01:00am 15.1 12.3 10.0 71 2.7 WSW 15 17 8 9 1012.0 - 0.0
06/12:45am 15.5 13.1 10.1 70 2.8 WSW 13 15 7 8 1012.1 - 0.0
06/12:30am 15.9 13.6 10.3 69 3.0 W 13 13 7 7 1012.1 - 0.0
06/12:15am 16.2 14.3 10.4 68 3.1 WSW 11 13 6 7 1012.3 - 0.0
06/12:00am 16.2 14.7 10.6 69 3.0 WSW 9 11 5 6 1012.5 - 0.0
 
Date/Time
EDT
Tmp

°C
App
Tmp
°C
Dew
Point
°C
Rel
Hum
%
Delta-T

°C
Wind Press
QNH
hPa
Press
MSL
hPa
Rain
since
9 am
mm
Dir
 
Spd
km/h
Gust
km/h
Spd
kts
Gust
kts
05/11:45pm 15.9 14.4 10.6 71 2.8 WSW 9 11 5 6 1012.6 - 0.0
05/11:30pm 15.6 13.3 10.6 72 2.7 SW 13 13 7 7 1012.7 - 0.0
05/11:15pm 15.7 13.4 10.5 71 2.8 SW 13 17 7 9 1012.8 - 0.0
05/11:00pm 15.9 14.0 10.6 71 2.8 WSW 11 13 6 7 1012.7 - 0.0
05/10:45pm 16.3 14.8 10.6 69 3.0 WSW 9 13 5 7 1012.7 - 0.0
05/10:30pm 16.8 15.8 10.9 68 3.2 WSW 7 11 4 6 1012.9 - 0.0
05/10:15pm 16.8 16.0 10.9 68 3.2 SW 6 7 3 4 1012.8 - 0.0
05/10:00pm 16.6 15.8 10.9 69 3.1 W 6 9 3 5 1012.8 - 0.0
05/09:45pm 16.8 16.4 11.0 68 3.1 SSW 4 7 2 4 1012.6 - 0.0
05/09:30pm 17.1 16.1 11.1 68 3.3 S 7 13 4 7 1012.6 - 0.0
05/09:15pm 17.2 15.9 11.1 67 3.3 S 9 15 5 8 1012.5 - 0.0
05/09:00pm 17.3 15.9 10.9 66 3.5 SSE 9 15 5 8 1012.2 - 0.0
05/08:45pm 17.6 15.8 10.8 64 3.7 SSE 11 17 6 9 1011.8 - 0.0
05/08:30pm 17.8 15.2 10.8 63 3.8 SSE 15 24 8 13 1011.5 - 0.0
05/08:15pm 18.0 15.0 10.7 62 4.0 SSE 17 24 9 13 1011.3 - 0.0
05/08:00pm 18.1 15.1 10.7 62 4.0 SSE 17 28 9 15 1011.0 - 0.0
05/07:45pm 18.3 14.7 10.6 61 4.2 SSE 20 32 11 17 1010.9 - 0.0
05/07:30pm 18.6 15.0 10.5 59 4.4 SSE 20 33 11 18 1010.6 - 0.0
05/07:15pm 18.9 14.5 10.3 57 4.6 SSE 24 35 13 19 1010.5 - 0.0
05/07:00pm 19.5 15.7 9.9 54 5.2 SSE 20 33 11 18 1010.2 - 0.0
05/06:45pm 19.8 15.6 9.6 51 5.5 SSE 22 35 12 19 1009.9 - 0.0
05/06:30pm 20.0 16.3 9.5 50 5.6 SSE 19 37 10 20 1009.6 - 0.0
05/06:15pm 20.1 14.6 9.3 49 5.8 SSE 28 43 15 23 1009.3 - 0.0
05/06:00pm 20.2 14.1 9.6 50 5.7 SSE 32 48 17 26 1009.1 - 0.0
05/05:45pm 20.2 13.5 9.8 51 5.6 SSE 35 56 19 30 1008.8 - 0.0
05/05:30pm 20.3 13.3 10.1 52 5.5 SSE 37 57 20 31 1008.7 - 0.0
05/05:15pm 20.5 14.4 10.4 52 5.5 SSE 33 54 18 29 1008.5 - 0.0
05/05:00pm 20.6 14.8 10.8 53 5.4 SSE 32 50 17 27 1008.6 - 0.0
05/04:45pm 20.8 14.9 11.0 53 5.4 SSE 33 52 18 28 1008.7 - 0.0
05/04:30pm 20.5 13.5 11.2 55 5.1 SE 39 54 21 29 1008.7 - 0.0
05/04:15pm 21.1 16.4 12.1 56 5.1 SSE 28 57 15 31 1008.6 - 0.0
05/04:00pm 21.0 15.4 12.0 56 5.1 SSE 33 52 18 28 1008.5 - 0.0
05/03:45pm 21.0 15.5 12.4 58 4.9 SSE 33 48 18 26 1008.5 - 0.0
05/03:30pm 21.4 16.6 13.0 58 4.8 SSE 30 44 16 24 1008.5 - 0.0
05/03:15pm 21.2 16.2 13.5 61 4.5 SSE 32 46 17 25 1008.4 - 0.0
05/03:00pm 21.4 16.9 14.8 66 3.9 SSE 32 44 17 24 1008.4 - 0.0
05/02:45pm 21.4 17.5 15.5 69 3.5 SSE 30 44 16 24 1008.4 - 0.0
05/02:30pm 21.6 18.1 15.6 68 3.6 SSE 28 43 15 23 1008.4 - 0.0
05/02:15pm 21.6 17.4 15.6 68 3.6 SSE 32 48 17 26 1008.3 - 0.0
05/02:00pm 21.6 17.7 15.4 68 3.7 SE 30 50 16 27 1008.2 - 0.0
05/01:45pm 22.5 19.0 15.5 64 4.2 SSE 28 46 15 25 1008.3 - 0.0
05/01:30pm 23.6 20.1 14.5 56 5.4 SSE 26 43 14 23 1008.1 - 0.0
05/01:15pm 25.8 21.3 10.2 37 8.7 SSW 24 41 13 22 1007.6 - 0.0
05/01:00pm 25.4 19.1 9.1 35 8.9 SW 32 43 17 23 1007.6 - 0.0
05/12:45pm 25.3 21.3 10.4 39 8.3 SSW 22 37 12 20 1007.6 - 0.0
05/12:30pm 24.7 20.7 10.4 40 8.0 SW 22 33 12 18 1007.5 - 0.0
05/12:15pm 24.2 20.6 10.5 42 7.6 WSW 20 41 11 22 1007.6 - 0.0
05/12:00pm 23.8 19.0 10.4 42 7.4 WSW 26 43 14 23 1007.6 - 0.0
05/11:45am 23.5 19.0 10.1 42 7.4 SW 24 37 13 20 1007.7 - 0.0
05/11:30am 23.5 18.6 9.9 42 7.5 WSW 26 43 14 23 1007.6 - 0.0
05/11:15am 23.0 19.4 10.4 45 7.0 SW 20 33 11 18 1007.7 - 0.0
05/11:00am 22.5 19.0 10.3 46 6.7 SW 19 32 10 17 1007.6 - 0.0
05/10:45am 22.6 19.7 10.9 47 6.5 SW 17 32 9 17 1007.5 - 0.0
05/10:30am 22.9 21.9 12.4 51 6.0 S 9 19 5 10 1007.3 - 0.0
05/10:15am 22.6 21.5 11.9 50 6.1 SSW 9 15 5 8 1006.9 - 0.0
05/10:00am 22.6 22.2 11.0 48 6.5 SW 4 9 2 5 1006.6 - 0.0
05/09:45am 22.3 21.5 9.7 44 6.9 SSW 4 7 2 4 1006.4 - 0.0
05/09:30am 21.9 20.9 10.3 47 6.4 WSW 6 7 3 4 1006.3 - 0.0
05/09:15am 21.5 20.3 9.6 46 6.4 W 6 11 3 6 1006.2 - 0.0
05/09:00am 21.5 19.1 8.8 44 6.8 W 11 17 6 9 1006.1 - 0.0
05/08:45am 21.6 18.7 8.3 42 7.0 W 13 19 7 10 1005.9 - 0.0
05/08:30am 21.7 17.6 7.9 41 7.2 W 19 26 10 14 1005.6 - 0.0
05/08:15am 21.8 18.0 7.6 40 7.4 WNW 17 24 9 13 1005.6 - 0.0
05/08:00am 21.5 17.2 7.0 39 7.5 W 19 28 10 15 1005.7 - 0.0
05/07:45am 21.3 16.5 7.5 41 7.2 W 22 26 12 14 1005.6 - 0.0
05/07:30am 20.7 16.1 8.2 44 6.6 WSW 22 33 12 18 1005.4 - 0.0
05/07:15am 19.9 15.7 8.3 47 6.1 WSW 20 28 11 15 1005.3 - 0.0
05/07:00am 20.3 16.8 8.6 47 6.2 W 17 24 9 13 1004.9 - 0.0
05/06:45am 20.5 15.4 9.3 48 6.0 W 26 35 14 19 1004.8 - 0.0
05/06:30am 19.7 13.4 11.2 58 4.7 W 35 39 19 21 1004.7 - 0.0
05/06:15am 19.3 15.4 14.3 73 2.9 W 28 41 15 22 1004.5 - 0.0
05/06:00am 18.9 18.0 15.8 82 1.8 W 15 22 8 12 1004.4 - 0.0
05/05:45am 19.7 19.5 16.8 83 1.8 W 13 20 7 11 1004.3 - 0.0
05/05:30am 20.0 20.0 18.1 89 1.2 W 15 19 8 10 1004.3 - 0.0
05/05:15am 19.9 20.1 18.6 92 0.8 W 15 20 8 11 1004.3 - 0.0
05/05:00am 20.0 21.1 18.8 93 0.8 W 11 17 6 9 1004.4 - 0.0
05/04:45am 20.2 22.1 19.0 93 0.8 W 7 13 4 7 1004.5 - 0.0
05/04:30am 20.6 22.7 19.4 93 0.8 W 7 11 4 6 1004.5 - 0.0
05/04:15am 20.6 21.7 19.6 94 0.6 WSW 13 19 7 10 1004.8 - 0.0
05/04:00am 20.3 20.8 19.2 93 0.7 WSW 15 17 8 9 1004.9 - 0.0
05/03:45am 20.3 20.8 19.3 94 0.6 WSW 15 19 8 10 1005.2 - 0.0
05/03:30am 20.6 21.3 19.7 95 0.6 W 15 19 8 10 1005.4 - 0.0
05/03:15am 20.5 21.2 19.6 95 0.6 W 15 19 8 10 1005.5 - 0.0
05/03:00am 20.5 20.8 19.6 95 0.6 W 17 20 9 11 1005.7 - 0.0
05/02:45am 20.2 21.5 19.3 95 0.6 W 11 17 6 9 1005.9 - 0.0
05/02:30am 19.1 20.3 18.2 94 0.6 W 9 13 5 7 1006.2 - 0.0
05/02:15am 19.0 20.1 18.0 94 0.6 W 9 11 5 6 1006.5 - 0.0
05/02:00am 19.3 20.5 18.3 94 0.6 W 9 11 5 6 1006.6 - 0.0
05/01:45am 19.4 21.2 18.4 94 0.6 W 6 9 3 5 1006.8 - 0.0
05/01:30am 19.6 21.5 18.6 94 0.6 W 6 9 3 5 1007.1 - 0.0
05/01:15am 19.6 21.5 18.5 93 0.7 W 6 9 3 5 1007.4 - 0.0
05/01:00am 19.6 21.5 18.5 93 0.7 WSW 6 9 3 5 1007.6 - 0.0
05/12:45am 19.5 21.4 18.5 94 0.6 WSW 6 7 3 4 1007.7 - 0.0
05/12:30am 19.6 21.9 18.5 93 0.7 SW 4 6 2 3 1007.9 - 0.0
05/12:15am 19.9 22.3 18.8 93 0.7 WSW 4 6 2 3 1008.0 - 0.0
05/12:00am 20.0 22.4 18.8 93 0.8 WSW 4 7 2 4 1008.2 - 0.0
 
Date/Time
EDT
Tmp

°C
App
Tmp
°C
Dew
Point
°C
Rel
Hum
%
Delta-T

°C
Wind Press
QNH
hPa
Press
MSL
hPa
Rain
since
9 am
mm
Dir
 
Spd
km/h
Gust
km/h
Spd
kts
Gust
kts
04/11:45pm 20.1 23.3 18.9 93 0.8 CALM 0 2 0 1 1008.3 - 0.0
04/11:30pm 20.3 23.6 19.1 93 0.8 CALM 0 0 0 0 1008.5 - 0.0
04/11:15pm 20.6 24.0 19.3 92 0.8 CALM 0 2 0 1 1008.8 - 0.0
04/11:00pm 20.8 23.5 19.4 92 0.9 NNE 4 6 2 3 1008.9 - 0.0
04/10:45pm 21.0 23.4 19.6 92 0.9 NNE 6 9 3 5 1008.9 - 0.0
04/10:30pm 21.1 23.5 19.7 92 0.9 NE 6 7 3 4 1008.8 - 0.0
04/10:15pm 21.1 23.8 19.5 90 1.0 NE 4 7 2 4 1008.8 - 0.0
04/10:00pm 21.2 24.0 19.6 90 1.0 E 4 6 2 3 1009.0 - 0.0
04/09:45pm 21.4 24.6 19.7 90 1.1 ESE 2 4 1 2 1009.1 - 0.0
04/09:30pm 21.6 24.4 19.7 89 1.2 ESE 4 4 2 2 1009.0 - 0.0
04/09:15pm 21.9 24.4 19.9 88 1.3 E 6 7 3 4 1008.9 - 0.0
04/09:00pm 22.0 24.6 20.0 88 1.3 E 6 7 3 4 1008.7 - 0.0
04/08:45pm 22.2 24.8 20.1 88 1.4 E 6 9 3 5 1008.6 - 0.0
04/08:30pm 22.3 24.7 20.0 87 1.5 E 7 11 4 6 1008.5 - 0.0
04/08:15pm 22.5 24.9 20.1 86 1.6 E 7 11 4 6 1008.4 - 0.0
04/08:00pm 22.8 25.3 20.2 85 1.7 E 7 13 4 7 1008.3 - 0.0
04/07:45pm 23.1 25.6 20.3 84 1.8 E 7 11 4 6 1008.3 - 0.0
04/07:30pm 23.4 25.1 20.2 82 2.1 ENE 11 17 6 9 1008.3 - 0.0
04/07:15pm 23.8 25.2 20.3 81 2.3 ENE 13 19 7 10 1008.1 - 0.0
04/07:00pm 24.3 25.8 20.5 79 2.5 ENE 13 19 7 10 1008.0 - 0.0
04/06:45pm 24.7 26.0 20.9 79 2.5 ENE 15 22 8 12 1008.0 - 0.0
04/06:30pm 24.9 26.6 21.0 79 2.6 ENE 13 20 7 11 1008.1 - 0.0
04/06:15pm 25.5 27.0 21.2 77 2.9 E 15 20 8 11 1008.2 - 0.0
04/06:00pm 25.7 27.2 21.2 76 3.0 ENE 15 20 8 11 1008.2 - 0.0
04/05:45pm 26.0 27.1 21.2 75 3.2 E 17 22 9 12 1008.3 - 0.0
04/05:30pm 26.6 28.5 21.4 73 3.5 E 13 20 7 11 1008.3 - 0.0
04/05:15pm 26.9 28.5 21.5 72 3.6 ENE 15 22 8 12 1008.4 - 0.0
04/05:00pm 27.0 28.7 21.6 72 3.6 ENE 15 22 8 12 1008.4 - 0.0
04/04:45pm 27.1 29.1 21.6 72 3.7 ENE 13 22 7 12 1008.6 - 0.0
04/04:30pm 26.9 28.4 21.3 71 3.7 ENE 15 22 8 12 1008.7 - 0.0
04/04:15pm 27.1 28.7 21.4 71 3.8 ENE 15 20 8 11 1009.0 - 0.0
04/04:00pm 26.8 28.4 20.8 69 4.0 ENE 13 22 7 12 1009.2 - 0.0
04/03:45pm 27.6 29.4 21.1 67 4.3 ENE 13 24 7 13 1009.3 - 0.0
04/03:30pm 27.6 29.0 21.1 67 4.3 NE 15 20 8 11 1009.5 - 0.0
04/03:15pm 27.8 29.6 21.1 67 4.5 ENE 13 19 7 10 1009.6 - 0.0
04/03:00pm 27.4 29.8 20.9 67 4.3 NE 9 19 5 10 1009.8 - 0.0
04/02:45pm 27.3 29.4 20.9 68 4.3 NE 11 20 6 11 1010.1 - 0.0
04/02:30pm 27.3 29.8 21.0 68 4.2 NE 9 17 5 9 1010.3 - 0.0
04/02:15pm 27.3 29.4 21.0 68 4.2 NE 11 19 6 10 1010.5 - 0.0
04/02:00pm 26.8 29.1 20.6 69 4.1 NE 9 13 5 7 1010.7 - 0.0
04/01:45pm 26.4 29.1 20.6 70 3.8 NE 7 11 4 6 1011.0 - 0.0
04/01:30pm 26.4 29.3 20.7 71 3.8 ENE 6 13 3 7 1011.3 - 0.0
04/01:15pm 25.8 28.5 20.3 71 3.6 NNE 6 11 3 6 1011.5 - 0.0
04/01:00pm 25.7 27.9 20.5 73 3.4 NNE 9 13 5 7 1011.6 - 0.0
04/12:45pm 25.5 27.9 20.1 72 3.5 NNE 7 11 4 6 1012.0 - 0.0
04/12:30pm 25.5 28.2 20.2 72 3.5 NNW 6 9 3 5 1012.2 - 0.0
04/12:15pm 25.4 28.1 20.3 73 3.3 N 6 9 3 5 1012.4 - 0.0
04/12:00pm 25.5 28.7 20.5 74 3.3 NE 4 11 2 6 1012.7 - 0.0
04/11:45am 25.5 29.2 20.8 75 3.1 NNE 2 7 1 4 1013.0 - 0.0
04/11:30am 24.6 27.6 20.1 76 2.9 N 4 7 2 4 1013.2 - 0.0
04/11:15am 25.1 28.9 21.0 78 2.7 E 2 7 1 4 1013.4 - 0.0
04/11:00am 24.0 26.8 20.5 81 2.3 SSE 6 7 3 4 1013.6 - 0.0
04/10:45am 23.6 26.1 20.2 81 2.2 SSE 7 13 4 7 1013.8 - 0.0
04/10:30am 22.9 25.4 19.8 83 2.0 SE 6 9 3 5 1013.9 - 0.0
04/10:15am 22.6 24.8 19.6 83 1.9 SE 7 9 4 5 1013.9 - 0.0
04/10:00am 22.5 24.9 19.7 84 1.8 SSE 6 9 3 5 1013.8 - 0.0
04/09:45am 22.2 24.3 19.3 83 1.9 SE 7 9 4 5 1013.8 - 0.0
04/09:30am 22.4 24.6 19.5 84 1.9 SSE 7 11 4 6 1013.7 - 0.0
04/09:15am 22.4 24.7 19.4 83 1.9 SSE 6 9 3 5 1013.7 - 0.0
04/09:00am 22.3 24.5 19.3 83 1.9 SE 6 9 3 5 1013.5 - 0.0
04/08:45am 22.1 24.3 19.3 84 1.8 SE 6 9 3 5 1013.4 - 0.0
04/08:30am 21.5 23.7 19.2 87 1.5 SSE 6 9 3 5 1013.3 - 0.0
04/08:15am 20.6 22.0 18.6 88 1.3 SSE 9 11 5 6 1013.1 - 0.0
04/08:00am 20.1 21.3 18.3 89 1.1 SSE 9 11 5 6 1013.1 - 0.0
04/07:45am 19.6 20.7 18.0 90 1.0 S 9 13 5 7 1013.0 - 0.0
04/07:30am 19.1 20.0 17.6 91 0.9 S 9 13 5 7 1012.9 - 0.0
04/07:15am 19.0 19.8 17.4 90 1.0 S 9 11 5 6 1012.8 - 0.0
04/07:00am 19.1 20.0 17.6 91 0.9 S 9 13 5 7 1012.6 - 0.0
04/06:45am 19.1 19.6 17.5 90 1.0 S 11 13 6 7 1012.6 - 0.0
04/06:30am 19.3 19.9 17.6 90 1.0 S 11 13 6 7 1012.6 - 0.0
04/06:15am 19.5 19.7 17.7 89 1.1 SSE 13 17 7 9 1012.5 - 0.0
04/06:00am 19.5 19.3 17.7 89 1.1 SSE 15 20 8 11 1012.6 - 0.0
04/05:45am 19.6 19.4 17.7 89 1.2 SSE 15 20 8 11 1012.6 - 0.0
04/05:30am 19.7 19.6 17.8 89 1.2 SSE 15 22 8 12 1012.6 - 0.0
04/05:15am 19.8 19.7 17.8 88 1.2 SSE 15 22 8 12 1012.6 - 0.0
04/05:00am 19.8 19.7 17.8 88 1.2 SSE 15 22 8 12 1012.6 - 0.0
04/04:45am 19.9 20.2 17.8 88 1.3 SSE 13 19 7 10 1012.8 - 0.0
04/04:30am 19.9 20.2 17.9 88 1.2 SSE 13 19 7 10 1012.7 - 0.0
04/04:15am 19.9 20.2 17.9 88 1.2 SSE 13 17 7 9 1012.8 - 0.0
04/04:00am 19.9 20.2 17.9 88 1.2 SSE 13 19 7 10 1012.8 - 0.0
04/03:45am 19.8 20.5 17.9 89 1.2 SSE 11 17 6 9 1012.9 - 0.0
04/03:30am 19.8 20.4 17.8 88 1.2 SSE 11 15 6 8 1012.9 - 0.0
04/03:15am 19.8 20.4 17.8 88 1.2 SSE 11 17 6 9 1013.2 - 0.0

Latest Capital City Observations: Canberra | Sydney | Melbourne | Brisbane | Adelaide | Perth | Hobart | Darwin

Other Formats:

Comma delimited format used in spreadsheet applications
http://www.bom.gov.au/fwo/IDN60901/IDN60901.95757.axf

JavaScript Object Notation format (JSON) in row-major order
http://www.bom.gov.au/fwo/IDN60901/IDN60901.95757.json